Time,TemperatureF,DewpointF,PressureIn,WindDirection,WindDirectionDegrees,WindSpeedMPH,WindSpeedGustMPH,Humidity,HourlyPrecipIn,Conditions,Clouds,dailyrainin,SolarRadiationWatts/m^2,SoftwareType,DateUTC
2013-08-09 00:10:00,82.7,75.0,30.00,ESE,115,6.0,7.0,77,0.00,,,0.00,0,weatherlink.com 1.10,2013-08-09 04:10:00,
2013-08-09 00:25:00,82.4,75.0,30.00,East,86,2.0,4.0,77,0.00,,,0.00,0,weatherlink.com 1.10,2013-08-09 04:25:00,
2013-08-09 00:40:00,82.1,74.0,30.00,East,82,2.0,4.0,76,0.00,,,0.00,0,weatherlink.com 1.10,2013-08-09 04:40:00,
2013-08-09 00:55:00,82.3,74.0,30.00,East,86,1.0,3.0,76,0.00,,,0.00,0,weatherlink.com 1.10,2013-08-09 04:55:00,
2013-08-09 01:10:00,82.3,74.0,30.00,East,83,2.0,5.0,76,0.00,,,0.00,0,weatherlink.com 1.10,2013-08-09 05:10:00,
2013-08-09 01:25:00,82.4,75.0,29.99,East,101,2.0,6.0,77,0.00,,,0.00,0,weatherlink.com 1.10,2013-08-09 05:25:00,
2013-08-09 01:40:00,82.3,74.0,29.99,East,82,3.0,7.0,77,0.00,,,0.00,0,weatherlink.com 1.10,2013-08-09 05:40:00,
2013-08-09 01:55:00,82.2,74.0,29.98,ESE,121,3.0,7.0,77,0.00,,,0.00,0,weatherlink.com 1.10,2013-08-09 05:55:00,
2013-08-09 02:10:00,82.2,74.0,29.98,East,92,4.0,8.0,77,0.00,,,0.00,0,weatherlink.com 1.10,2013-08-09 06:10:00,
2013-08-09 02:25:00,82.1,74.0,29.98,East,80,3.0,7.0,77,0.00,,,0.00,0,weatherlink.com 1.10,2013-08-09 06:25:00,
2013-08-09 02:40:00,82.1,74.0,29.98,ESE,114,2.0,8.0,77,0.00,,,0.00,0,weatherlink.com 1.10,2013-08-09 06:40:00,
2013-08-09 02:55:00,81.9,74.0,29.98,ESE,113,3.0,7.0,78,0.00,,,0.00,0,weatherlink.com 1.10,2013-08-09 06:55:00,
2013-08-09 03:10:00,81.9,74.0,29.97,ESE,119,2.0,6.0,77,0.00,,,0.00,0,weatherlink.com 1.10,2013-08-09 07:10:00,
2013-08-09 03:25:00,81.7,74.0,29.96,ESE,115,4.0,6.0,78,0.00,,,0.00,0,weatherlink.com 1.10,2013-08-09 07:25:00,
2013-08-09 03:40:00,81.5,74.0,29.95,ESE,123,3.0,6.0,79,0.00,,,0.00,0,weatherlink.com 1.10,2013-08-09 07:40:00,
2013-08-09 03:55:00,81.6,75.0,29.95,ESE,105,1.0,7.0,79,0.00,,,0.00,0,weatherlink.com 1.10,2013-08-09 07:55:00,
2013-08-09 04:11:00,81.6,75.0,29.95,ENE,72,4.0,8.0,80,0.00,,,0.00,0,weatherlink.com 1.10,2013-08-09 08:11:00,
2013-08-09 04:26:00,81.7,75.0,29.95,East,84,2.0,7.0,79,0.00,,,0.00,0,weatherlink.com 1.10,2013-08-09 08:26:00,
2013-08-09 04:41:00,81.9,75.0,29.95,East,93,3.0,10.0,79,0.00,,,0.00,0,weatherlink.com 1.10,2013-08-09 08:41:00,
2013-08-09 04:56:00,81.7,75.0,29.95,East,88,3.0,8.0,80,0.00,,,0.00,0,weatherlink.com 1.10,2013-08-09 08:56:00,
2013-08-09 05:11:00,81.6,75.0,29.96,ESE,119,1.0,6.0,80,0.00,,,0.00,0,weatherlink.com 1.10,2013-08-09 09:11:00,
2013-08-09 05:26:00,81.4,75.0,29.95,ESE,122,4.0,6.0,80,0.00,,,0.00,0,weatherlink.com 1.10,2013-08-09 09:26:00,
2013-08-09 05:41:00,81.2,73.0,29.95,SE,130,2.0,6.0,77,0.00,,,0.00,0,weatherlink.com 1.10,2013-08-09 09:41:00,
2013-08-09 05:56:00,81.1,74.0,29.95,ESE,118,0.0,3.0,80,0.00,,,0.00,0,weatherlink.com 1.10,2013-08-09 09:56:00,
2013-08-09 06:11:00,80.6,75.0,29.95,ESE,115,1.0,3.0,82,0.00,,,0.00,0,weatherlink.com 1.10,2013-08-09 10:11:00,
2013-08-09 06:26:00,80.8,75.0,29.95,East,90,1.0,4.0,82,0.00,,,0.00,0,weatherlink.com 1.10,2013-08-09 10:26:00,
2013-08-09 06:41:00,81.1,75.0,29.96,ESE,119,3.0,4.0,82,0.00,,,0.00,0,weatherlink.com 1.10,2013-08-09 10:41:00,
2013-08-09 06:56:00,80.9,74.0,29.96,ESE,102,2.0,3.0,79,0.00,,,0.00,7,weatherlink.com 1.10,2013-08-09 10:56:00,
2013-08-09 07:11:00,81.0,74.0,29.97,East,87,1.0,3.0,79,0.00,,,0.00,14,weatherlink.com 1.10,2013-08-09 11:11:00,
2013-08-09 07:26:00,81.3,75.0,29.97,SE,132,1.0,4.0,80,0.00,,,0.00,44,weatherlink.com 1.10,2013-08-09 11:26:00,
2013-08-09 07:41:00,82.3,75.0,29.97,ESE,110,2.0,6.0,79,0.00,,,0.00,134,weatherlink.com 1.10,2013-08-09 11:41:00,
2013-08-09 07:56:00,83.2,76.0,29.97,ESE,116,4.0,7.0,79,0.00,,,0.00,213,weatherlink.com 1.10,2013-08-09 11:56:00,
2013-08-09 08:11:00,83.9,76.0,29.97,ESE,103,1.0,6.0,78,0.00,,,0.00,216,weatherlink.com 1.10,2013-08-09 12:11:00,
2013-08-09 08:26:00,84.2,76.0,29.98,East,91,3.0,7.0,75,0.00,,,0.00,271,weatherlink.com 1.10,2013-08-09 12:26:00,
2013-08-09 08:41:00,84.1,76.0,29.99,ESE,117,3.0,7.0,76,0.00,,,0.00,330,weatherlink.com 1.10,2013-08-09 12:41:00,
2013-08-09 08:56:00,85.1,76.0,30.00,East,95,9.0,9.0,74,0.00,,,0.00,383,weatherlink.com 1.10,2013-08-09 12:56:00,
2013-08-09 09:11:00,85.4,77.0,30.00,ESE,107,6.0,11.0,75,0.00,,,0.00,436,weatherlink.com 1.10,2013-08-09 13:11:00,
2013-08-09 09:26:00,85.6,76.0,30.00,ESE,119,7.0,10.0,73,0.00,,,0.00,483,weatherlink.com 1.10,2013-08-09 13:26:00,
2013-08-09 09:41:00,85.7,76.0,30.00,SE,138,2.0,11.0,73,0.00,,,0.00,538,weatherlink.com 1.10,2013-08-09 13:41:00,
2013-08-09 09:56:00,85.8,76.0,30.01,East,85,7.0,13.0,73,0.00,,,0.00,534,weatherlink.com 1.10,2013-08-09 13:56:00,
2013-08-09 10:11:00,86.2,76.0,30.01,ENE,78,7.0,12.0,71,0.00,,,0.00,638,weatherlink.com 1.10,2013-08-09 14:11:00,
2013-08-09 10:26:00,86.2,76.0,30.02,East,90,8.0,12.0,72,0.00,,,0.00,712,weatherlink.com 1.10,2013-08-09 14:26:00,
2013-08-09 10:41:00,84.7,77.0,30.02,ESE,113,4.0,11.0,77,0.00,,,0.00,160,weatherlink.com 1.10,2013-08-09 14:41:00,
2013-08-09 10:56:00,84.1,78.0,30.01,SE,139,2.0,8.0,81,0.00,,,0.00,868,weatherlink.com 1.10,2013-08-09 14:56:00,
2013-08-09 11:11:00,86.9,76.0,30.02,SSE,161,4.0,10.0,71,0.00,,,0.00,803,weatherlink.com 1.10,2013-08-09 15:11:00,
2013-08-09 11:27:00,86.4,76.0,30.01,ESE,120,9.0,13.0,72,0.00,,,0.00,933,weatherlink.com 1.10,2013-08-09 15:27:00,
2013-08-09 11:42:00,86.2,77.0,30.02,ESE,117,4.0,10.0,74,0.00,,,0.00,907,weatherlink.com 1.10,2013-08-09 15:42:00,
2013-08-09 11:57:00,86.9,77.0,30.01,ESE,110,1.0,12.0,72,0.00,,,0.00,916,weatherlink.com 1.10,2013-08-09 15:57:00,
2013-08-09 12:12:00,87.1,76.0,30.02,East,80,7.0,11.0,70,0.00,,,0.00,288,weatherlink.com 1.10,2013-08-09 16:12:00,
2013-08-09 12:27:00,79.4,74.0,30.02,WSW,247,1.0,14.0,82,0.22,,,0.22,218,weatherlink.com 1.10,2013-08-09 16:27:00,
2013-08-09 12:42:00,79.4,76.0,30.02,ENE,72,1.0,2.0,88,0.22,,,0.22,283,weatherlink.com 1.10,2013-08-09 16:42:00,
2013-08-09 12:57:00,80.8,77.0,30.03,East,101,4.0,8.0,89,0.23,,,0.23,387,weatherlink.com 1.10,2013-08-09 16:57:00,
2013-08-09 13:12:00,81.2,77.0,30.03,ESE,117,6.0,10.0,86,0.23,,,0.23,415,weatherlink.com 1.10,2013-08-09 17:12:00,
2013-08-09 13:27:00,81.9,76.0,30.04,SSE,154,2.0,8.0,83,0.01,,,0.23,318,weatherlink.com 1.10,2013-08-09 17:27:00,
2013-08-09 13:42:00,82.0,77.0,30.05,ESE,123,3.0,8.0,84,0.01,,,0.23,323,weatherlink.com 1.10,2013-08-09 17:42:00,
2013-08-09 13:57:00,81.4,76.0,30.05,SSE,151,3.0,10.0,84,0.00,,,0.23,304,weatherlink.com 1.10,2013-08-09 17:57:00,
2013-08-09 14:12:00,80.8,76.0,30.04,SSE,154,3.0,12.0,84,0.00,,,0.23,90,weatherlink.com 1.10,2013-08-09 18:12:00,
2013-08-09 14:27:00,79.8,75.0,30.03,SSW,209,2.0,10.0,84,0.00,,,0.23,281,weatherlink.com 1.10,2013-08-09 18:27:00,
2013-08-09 14:42:00,80.8,76.0,30.03,SSE,153,4.0,8.0,85,0.00,,,0.23,329,weatherlink.com 1.10,2013-08-09 18:42:00,
2013-08-09 14:57:00,80.9,75.0,30.02,SSE,157,5.0,10.0,83,0.00,,,0.23,366,weatherlink.com 1.10,2013-08-09 18:57:00,
2013-08-09 15:12:00,81.9,74.0,30.01,South,178,3.0,10.0,78,0.00,,,0.23,417,weatherlink.com 1.10,2013-08-09 19:12:00,
2013-08-09 15:27:00,82.8,75.0,30.00,East,87,4.0,9.0,76,0.00,,,0.23,422,weatherlink.com 1.10,2013-08-09 19:27:00,
2013-08-09 15:42:00,83.2,75.0,30.00,SE,139,1.0,10.0,76,0.00,,,0.23,633,weatherlink.com 1.10,2013-08-09 19:42:00,
2013-08-09 15:57:00,83.4,75.0,30.00,ENE,71,9.0,10.0,76,0.00,,,0.23,269,weatherlink.com 1.10,2013-08-09 19:57:00,
2013-08-09 16:12:00,83.7,74.0,29.99,ESE,103,4.0,10.0,73,0.00,,,0.23,875,weatherlink.com 1.10,2013-08-09 20:12:00,
2013-08-09 16:27:00,83.9,73.0,30.00,SSE,149,2.0,10.0,69,0.00,,,0.23,703,weatherlink.com 1.10,2013-08-09 20:27:00,
2013-08-09 16:42:00,84.3,74.0,30.00,East,90,3.0,10.0,72,0.00,,,0.23,680,weatherlink.com 1.10,2013-08-09 20:42:00,
2013-08-09 16:57:00,83.2,74.0,30.00,East,101,4.0,10.0,73,0.00,,,0.23,258,weatherlink.com 1.10,2013-08-09 20:57:00,
2013-08-09 17:12:00,83.2,75.0,30.01,South,186,3.0,12.0,75,0.00,,,0.23,564,weatherlink.com 1.10,2013-08-09 21:12:00,
2013-08-09 17:27:00,83.5,74.0,30.00,East,96,4.0,12.0,73,0.00,,,0.23,179,weatherlink.com 1.10,2013-08-09 21:27:00,
2013-08-09 17:42:00,83.2,74.0,30.00,SSE,148,2.0,9.0,74,0.00,,,0.23,134,weatherlink.com 1.10,2013-08-09 21:42:00,
2013-08-09 17:57:00,82.8,74.0,30.00,ESE,118,3.0,11.0,74,0.00,,,0.23,190,weatherlink.com 1.10,2013-08-09 21:57:00,
2013-08-09 18:12:00,82.6,73.0,30.00,ESE,102,3.0,9.0,72,0.00,,,0.23,109,weatherlink.com 1.10,2013-08-09 22:12:00,
2013-08-09 18:27:00,82.6,72.0,30.00,ESE,119,4.0,7.0,70,0.00,,,0.23,98,weatherlink.com 1.10,2013-08-09 22:27:00,
2013-08-09 18:42:00,82.6,73.0,30.00,ESE,112,4.0,8.0,72,0.00,,,0.23,79,weatherlink.com 1.10,2013-08-09 22:42:00,
2013-08-09 18:57:00,82.5,72.0,30.00,East,101,4.0,8.0,71,0.00,,,0.23,54,weatherlink.com 1.10,2013-08-09 22:57:00,
2013-08-09 19:12:00,82.4,72.0,30.00,East,96,3.0,5.0,71,0.00,,,0.23,39,weatherlink.com 1.10,2013-08-09 23:12:00,
2013-08-09 19:27:00,82.2,72.0,30.01,ESE,111,3.0,6.0,71,0.00,,,0.23,26,weatherlink.com 1.10,2013-08-09 23:27:00,
2013-08-09 19:42:00,82.0,73.0,30.01,SE,129,3.0,4.0,74,0.00,,,0.23,11,weatherlink.com 1.10,2013-08-09 23:42:00,
2013-08-09 19:57:00,81.7,73.0,30.01,East,96,3.0,4.0,75,0.00,,,0.23,5,weatherlink.com 1.10,2013-08-09 23:57:00,
2013-08-09 20:12:00,81.3,73.0,30.02,ESE,121,0.0,3.0,76,0.00,,,0.23,0,weatherlink.com 1.10,2013-08-10 00:12:00,
2013-08-09 20:27:00,81.0,73.0,30.03,ESE,121,0.0,6.0,76,0.00,,,0.23,0,weatherlink.com 1.10,2013-08-10 00:27:00,
2013-08-09 20:42:00,81.2,73.0,30.03,ESE,107,1.0,4.0,77,0.00,,,0.23,0,weatherlink.com 1.10,2013-08-10 00:42:00,
2013-08-09 20:57:00,81.3,74.0,30.03,East,93,1.0,4.0,78,0.00,,,0.23,0,weatherlink.com 1.10,2013-08-10 00:57:00,
2013-08-09 21:12:00,81.2,74.0,30.03,East,82,1.0,3.0,79,0.00,,,0.23,0,weatherlink.com 1.10,2013-08-10 01:12:00,
2013-08-09 21:27:00,81.0,74.0,30.04,ESE,115,1.0,4.0,80,0.00,,,0.23,0,weatherlink.com 1.10,2013-08-10 01:27:00,
2013-08-09 21:42:00,80.7,74.0,30.05,ESE,115,0.0,2.0,81,0.00,,,0.23,0,weatherlink.com 1.10,2013-08-10 01:42:00,
2013-08-09 21:57:00,80.5,75.0,30.05,ESE,115,1.0,2.0,82,0.00,,,0.23,0,weatherlink.com 1.10,2013-08-10 01:57:00,
2013-08-09 22:12:00,80.7,75.0,30.05,East,88,3.0,3.0,82,0.00,,,0.23,0,weatherlink.com 1.10,2013-08-10 02:12:00,
2013-08-09 22:27:00,80.8,75.0,30.05,East,90,2.0,3.0,82,0.00,,,0.23,0,weatherlink.com 1.10,2013-08-10 02:27:00,
2013-08-09 22:42:00,81.0,75.0,30.05,ESE,107,1.0,5.0,83,0.00,,,0.23,0,weatherlink.com 1.10,2013-08-10 02:42:00,
2013-08-09 22:57:00,80.7,74.0,30.06,East,95,2.0,4.0,81,0.00,,,0.23,0,weatherlink.com 1.10,2013-08-10 02:57:00,
2013-08-09 23:13:00,80.8,74.0,30.05,East,96,2.0,7.0,80,0.00,,,0.23,0,weatherlink.com 1.10,2013-08-10 03:13:00,
2013-08-09 23:27:00,80.7,74.0,30.06,East,96,2.0,4.0,80,0.00,,,0.23,0,weatherlink.com 1.10,2013-08-10 03:27:00,
2013-08-09 23:42:00,80.5,74.0,30.06,East,95,1.0,3.0,81,0.00,,,0.23,0,weatherlink.com 1.10,2013-08-10 03:42:00,
2013-08-09 23:57:00,80.5,74.0,30.05,East,97,1.0,3.0,81,0.00,,,0.23,0,weatherlink.com 1.10,2013-08-10 03:57:00,